Inwood, WV (25428)

10:24 AM EDT on March 28, 2015 (GMT -0400)
Boyds Crossing | | Change Station
CLOSE
Current Station
Personal Weather Station
Location: Bunker Hill, WV
Elevation: 561 ft
Nearby Weather Stations

Elev 561 ft 39.33 °N, 78.06 °W | Updated 26 seconds ago

Clear
Clear
30.0 °F
Feels Like 23 °F
N
7.2
Wind Variable Wind from NNW
Gusts 7.2 mph

Today
High -- | Low -- °F
--% Chance of Precip.
Yesterday
High -- | Low -- °F
Precip. -- in
7:03 AM 7:31 PM
Waxing Gibbous, 62% visible
Pressure 30.05 in
Visibility 10.0 miles
Clouds Clear
Windchill 23 °F
Dew Point 9 °F
Humidity 40%
Rainfall 0.00 in
Snow Depth Not available.
UV 3 out of 12
Pollen 7.40 out of 12
Air Quality Not available.
Flu Activity Not available.
METAR KMRB 281353Z 31018G25KT 10SM CLR M03/M15 A3004 RMK AO2 SLP176 T10281150

More Conditions Fewer Conditions

Pressure 30.05 in
Visibility 10.0 miles
Clouds Clear
Windchill 23 °F
Dew Point 9 °F
Humidity 40%
Rainfall 0.00 in
Snow Depth Not available.
UV 3 out of 12
Pollen 7.40 out of 12
Air Quality Not available.
Flu Activity Not available.
METAR KMRB 281353Z 31018G25KT 10SM CLR M03/M15 A3004 RMK AO2 SLP176 T10281150

More Conditions Fewer Conditions

10-Day Weather Forecast

Almanac

Astronomy

Mar. 28, 2015 Rise Set
Actual Time
Civil Twilight
Nautical Twilight
Astronomical Twilight
Moon
Length of Visible Light
Length of Day
Tomorrow will be .
, % of the Moon is Illuminated

Today's Extremes

State Highs State Lows

Community

WunderPhotos

Upload Photos

1,808,984 photos uploaded!

WunderBlogs® & News

Nearby

Air Quality

  Air Quality AQ Index Pollutant
Not available.

Snow Depth

Station Depth Elevation

Earthquake Activity

City Distance Mag. Time & Date
Minimum magnitude displayed is 2.5.

Coastal Water Temperatures

Place Temperature

Stations

Nearby Weather Stations

Station Location Temp. Windchill Dew Point Humidity Wind Precip. Elev Updated Type